Time;durP1;ratioP1;P1;durP2;ratioP2;P2;SDS_P1;SDS_P2;PMS_P1;PMS_P2;Temp;Humidity;BMP_temperature;BMP_pressure;BME280_temperature;BME280_humidity;BME280_pressure;Samples;Min_cycle;Max_cycle;Signal;HPM_P1;HPM_P2
2023/01/16 00:01:01;;;;;;;;;;;5.20;99.90;;;;;;8376218;28;19931;-74
2023/01/16 00:05:02;;;;;;;;;;;5.10;99.90;;;;;;8373633;28;19925;-74
2023/01/16 00:09:04;;;;;;;;;;;5.10;99.90;;;;;;8379879;28;19928;-74
2023/01/16 00:13:06;;;;;;;;;;;5.10;99.90;;;;;;8390695;28;19972;-75
2023/01/16 00:17:07;;;;;;;;;;;5.10;99.90;;;;;;8362574;28;20291;-74
2023/01/16 00:21:09;;;;;;;;;;;5.00;99.90;;;;;;8375398;28;19983;-75
2023/01/16 00:25:10;;;;;;;;;;;5.00;99.90;;;;;;8385719;28;20031;-74
2023/01/16 00:29:12;;;;;;;;;;;5.00;99.90;;;;;;8384907;28;19959;-74
2023/01/16 00:33:14;;;;;;;;;;;5.10;99.90;;;;;;8387269;28;19965;-74
2023/01/16 00:37:15;;;;;;;;;;;5.10;99.90;;;;;;8374734;28;19950;-74
2023/01/16 00:41:17;;;;;;;;;;;5.10;99.90;;;;;;8392599;28;20468;-74
2023/01/16 00:45:19;;;;;;;;;;;5.10;99.90;;;;;;8388775;28;20340;-75
2023/01/16 00:49:20;;;;;;;;;;;5.10;99.90;;;;;;8387951;28;19973;-74
2023/01/16 00:53:22;;;;;;;;;;;5.10;99.90;;;;;;8375575;28;20324;-74
2023/01/16 00:57:23;;;;;;;;;;;5.00;99.90;;;;;;8383666;28;19925;-74
2023/01/16 01:01:25;;;;;;;;;;;5.10;99.90;;;;;;8366209;28;19932;-74
2023/01/16 01:05:27;;;;;;;;;;;5.10;99.90;;;;;;8389348;28;19964;-74
2023/01/16 01:09:28;;;;;;;;;;;5.10;99.90;;;;;;8359686;28;19931;-74
2023/01/16 01:13:30;;;;;;;;;;;5.10;99.90;;;;;;8386299;28;19940;-74
2023/01/16 01:17:32;;;;;;;;;;;5.10;99.90;;;;;;8386477;28;19939;-74
2023/01/16 01:21:33;;;;;;;;;;;5.00;99.90;;;;;;8375831;28;19996;-74
2023/01/16 01:25:37;;;;;;;;;;;5.00;99.90;;;;;;8380804;28;19969;-74
2023/01/16 01:29:38;;;;;;;;;;;4.90;99.90;;;;;;8378750;28;19929;-74
2023/01/16 01:33:40;;;;;;;;;;;4.90;99.90;;;;;;8374822;28;20323;-74
2023/01/16 01:37:42;;;;;;;;;;;4.80;99.90;;;;;;8376904;28;19935;-75
2023/01/16 01:41:43;;;;;;;;;;;4.70;99.90;;;;;;8370744;28;19964;-74
2023/01/16 01:45:48;;;;;;;;;;;4.60;99.90;;;;;;8404421;28;19971;-75
2023/01/16 01:49:50;;;;;;;;;;;4.50;99.90;;;;;;8368208;28;20526;-75
2023/01/16 01:53:54;;;;;;;;;;;4.40;99.90;;;;;;8406971;28;19932;-75
2023/01/16 01:57:57;;;;;;;;;;;4.40;99.90;;;;;;8379204;28;19932;-75
2023/01/16 02:02:01;;;;;;;;;;;4.40;99.90;;;;;;8383099;28;20275;-75
2023/01/16 02:06:05;;;;;;;;;;;4.30;99.90;;;;;;8386438;28;19939;-74
2023/01/16 02:10:27;;;;;;;;;;;4.20;99.90;;;;;;8361468;28;19925;-75
2023/01/16 02:14:30;;;;;;;;;;;4.10;99.90;;;;;;8359928;28;19964;-75
2023/01/16 02:22:58;;;;;;;;;;;4.10;99.90;;;;;;8383668;28;19924;-75
2023/01/16 02:27:03;;;;;;;;;;;4.10;99.90;;;;;;8397094;28;19932;-74
2023/01/16 02:31:23;;;;;;;;;;;4.10;99.90;;;;;;8377203;28;20303;-74
2023/01/16 02:35:40;;;;;;;;;;;4.20;99.90;;;;;;8385878;28;20244;-74
2023/01/16 02:39:41;;;;;;;;;;;4.20;99.90;;;;;;8388330;28;19954;-74
2023/01/16 02:43:43;;;;;;;;;;;4.20;99.90;;;;;;8401968;28;19939;-74
2023/01/16 02:47:45;;;;;;;;;;;4.10;99.90;;;;;;8398724;28;19931;-74
2023/01/16 02:51:57;;;;;;;;;;;4.10;99.90;;;;;;8397331;28;19985;-75
2023/01/16 02:56:08;;;;;;;;;;;4.20;99.90;;;;;;8367392;28;19925;-75
2023/01/16 03:00:10;;;;;;;;;;;4.20;99.90;;;;;;8386091;28;19927;-75
2023/01/16 03:04:31;;;;;;;;;;;4.20;99.90;;;;;;8396208;28;20367;-75
2023/01/16 03:08:51;;;;;;;;;;;4.20;99.90;;;;;;8397524;28;19925;-74
2023/01/16 03:13:19;;;;;;;;;;;4.20;99.90;;;;;;8398888;28;19947;-75
2023/01/16 03:17:40;;;;;;;;;;;4.20;99.90;;;;;;8382735;28;20336;-75
2023/01/16 03:22:03;;;;;;;;;;;4.20;99.90;;;;;;8394937;28;19958;-75
2023/01/16 03:26:10;;;;;;;;;;;4.10;99.90;;;;;;8390298;28;19932;-75
2023/01/16 03:30:21;;;;;;;;;;;4.10;99.90;;;;;;8369596;28;19933;-75
2023/01/16 03:34:29;;;;;;;;;;;4.10;99.90;;;;;;8383193;28;19924;-75
2023/01/16 03:38:32;;;;;;;;;;;4.00;99.90;;;;;;8382480;28;19978;-75
2023/01/16 03:42:36;;;;;;;;;;;4.00;99.90;;;;;;8402640;28;19932;-75
2023/01/16 03:46:44;;;;;;;;;;;4.00;99.90;;;;;;8384880;28;19929;-76
2023/01/16 03:50:54;;;;;;;;;;;4.00;99.90;;;;;;8388001;28;19929;-75
2023/01/16 03:55:05;;;;;;;;;;;3.90;99.90;;;;;;8389003;28;19935;-74
2023/01/16 03:59:07;;;;;;;;;;;3.90;99.90;;;;;;8384360;28;19971;-75
2023/01/16 04:03:12;;;;;;;;;;;3.90;99.90;;;;;;8397583;28;19928;-75
2023/01/16 04:07:20;;;;;;;;;;;3.90;99.90;;;;;;8371300;28;19936;-75
2023/01/16 04:11:22;;;;;;;;;;;3.90;99.90;;;;;;8381844;28;19924;-74
2023/01/16 04:15:25;;;;;;;;;;;3.90;99.90;;;;;;8380036;28;19928;-75
2023/01/16 04:19:29;;;;;;;;;;;3.90;99.90;;;;;;8384466;28;20402;-75
2023/01/16 04:23:31;;;;;;;;;;;3.90;99.90;;;;;;8400583;28;19924;-75
2023/01/16 04:27:33;;;;;;;;;;;3.90;99.90;;;;;;8376145;28;19972;-75
2023/01/16 04:31:34;;;;;;;;;;;3.90;99.90;;;;;;8368443;28;20160;-75
2023/01/16 04:35:36;;;;;;;;;;;3.90;99.90;;;;;;8382833;28;20020;-75
2023/01/16 04:39:37;;;;;;;;;;;3.90;99.90;;;;;;8377375;28;19928;-74
2023/01/16 04:43:39;;;;;;;;;;;3.90;99.90;;;;;;8405429;28;19924;-74
2023/01/16 04:47:44;;;;;;;;;;;3.90;99.90;;;;;;8356462;28;20039;-75
2023/01/16 04:51:46;;;;;;;;;;;3.90;99.90;;;;;;8365430;28;20325;-75
2023/01/16 04:55:47;;;;;;;;;;;3.90;99.90;;;;;;8396307;28;19928;-75
2023/01/16 04:59:49;;;;;;;;;;;3.80;99.90;;;;;;8394642;28;19928;-75
2023/01/16 05:03:51;;;;;;;;;;;3.80;99.90;;;;;;8388607;28;19932;-75
2023/01/16 05:12:12;;;;;;;;;;;3.80;99.90;;;;;;8402431;28;19924;-75
2023/01/16 05:16:14;;;;;;;;;;;3.80;99.90;;;;;;8369483;28;20347;-76
2023/01/16 05:20:16;;;;;;;;;;;3.80;99.90;;;;;;8395030;28;19925;-74
2023/01/16 05:24:17;;;;;;;;;;;3.80;99.90;;;;;;8381793;28;20027;-75
2023/01/16 05:28:19;;;;;;;;;;;3.80;99.90;;;;;;8398223;28;20024;-75
2023/01/16 05:32:21;;;;;;;;;;;3.90;99.90;;;;;;8377226;28;19932;-75
2023/01/16 05:36:22;;;;;;;;;;;3.90;99.90;;;;;;8371390;28;20283;-75
2023/01/16 05:40:24;;;;;;;;;;;3.90;99.90;;;;;;8386610;28;19924;-75
2023/01/16 05:44:26;;;;;;;;;;;3.90;99.90;;;;;;8392619;28;19929;-75
2023/01/16 05:48:28;;;;;;;;;;;4.00;99.90;;;;;;8391801;28;19932;-75
2023/01/16 05:52:29;;;;;;;;;;;4.00;99.90;;;;;;8397681;28;19940;-75
2023/01/16 05:56:31;;;;;;;;;;;4.00;99.90;;;;;;8391235;28;20039;-74
2023/01/16 06:00:33;;;;;;;;;;;4.10;99.90;;;;;;8395173;28;19924;-75
2023/01/16 06:04:34;;;;;;;;;;;4.10;99.90;;;;;;8373311;28;19924;-74
2023/01/16 06:08:36;;;;;;;;;;;4.10;99.90;;;;;;8397242;28;19994;-74
2023/01/16 06:12:38;;;;;;;;;;;4.10;99.90;;;;;;8401813;28;20669;-74
2023/01/16 06:16:39;;;;;;;;;;;4.20;99.90;;;;;;8392923;28;19924;-75
2023/01/16 06:20:41;;;;;;;;;;;4.30;99.90;;;;;;8394793;28;19928;-76
2023/01/16 06:24:43;;;;;;;;;;;4.30;99.90;;;;;;8401994;28;20003;-75
2023/01/16 06:28:45;;;;;;;;;;;4.40;99.90;;;;;;8391031;28;19925;-75
2023/01/16 06:32:48;;;;;;;;;;;4.40;99.90;;;;;;8399510;28;19931;-74
2023/01/16 06:36:50;;;;;;;;;;;4.50;99.90;;;;;;8406455;28;19924;-75
2023/01/16 06:40:55;;;;;;;;;;;4.50;99.90;;;;;;8389593;28;19998;-75
2023/01/16 06:44:57;;;;;;;;;;;4.50;99.90;;;;;;8392156;28;20371;-74
2023/01/16 06:48:59;;;;;;;;;;;4.50;99.90;;;;;;8397403;28;19924;-75
2023/01/16 06:53:00;;;;;;;;;;;4.50;99.90;;;;;;8398254;28;19978;-75
2023/01/16 06:57:02;;;;;;;;;;;4.60;99.90;;;;;;8400272;28;20037;-74
2023/01/16 07:01:04;;;;;;;;;;;4.60;99.90;;;;;;8391614;28;19925;-74
2023/01/16 07:05:07;;;;;;;;;;;4.60;99.90;;;;;;8401550;28;19928;-74
2023/01/16 07:09:09;;;;;;;;;;;4.60;99.90;;;;;;8395193;28;19928;-75
2023/01/16 07:13:11;;;;;;;;;;;4.60;99.90;;;;;;8394681;28;19924;-75
2023/01/16 07:25:55;;;;;;;;;;;4.50;99.90;;;;;;8384527;28;20268;-74
2023/01/16 07:29:58;;;;;;;;;;;4.50;99.90;;;;;;8382956;28;19964;-75
2023/01/16 07:33:59;;;;;;;;;;;4.40;99.90;;;;;;8394812;28;19924;-74
2023/01/16 07:38:01;;;;;;;;;;;4.40;99.90;;;;;;8389912;28;19934;-75
2023/01/16 07:42:04;;;;;;;;;;;4.40;99.90;;;;;;8398245;28;20359;-75
2023/01/16 07:46:06;;;;;;;;;;;4.40;99.90;;;;;;8403428;28;20277;-75
2023/01/16 07:50:08;;;;;;;;;;;4.30;99.90;;;;;;8395673;28;20343;-75
2023/01/16 07:54:11;;;;;;;;;;;4.30;99.90;;;;;;8388315;28;19985;-75
2023/01/16 07:58:12;;;;;;;;;;;4.40;99.90;;;;;;8397533;28;19975;-75
2023/01/16 08:02:14;;;;;;;;;;;4.30;99.90;;;;;;8386347;28;20299;-74
2023/01/16 08:06:16;;;;;;;;;;;4.40;99.90;;;;;;8403348;28;19964;-75
2023/01/16 08:10:17;;;;;;;;;;;4.40;99.90;;;;;;8406686;28;19968;-75
2023/01/16 08:14:19;;;;;;;;;;;4.40;99.90;;;;;;8402531;28;19924;-74
2023/01/16 08:18:21;;;;;;;;;;;4.40;99.90;;;;;;8417811;28;19931;-74
2023/01/16 08:22:22;;;;;;;;;;;4.40;99.90;;;;;;8404514;28;20019;-75
2023/01/16 08:26:24;;;;;;;;;;;4.40;99.90;;;;;;8411972;28;20373;-75
2023/01/16 08:30:26;;;;;;;;;;;4.40;99.90;;;;;;8395141;28;20392;-75
2023/01/16 08:34:27;;;;;;;;;;;4.50;99.90;;;;;;8392976;28;19964;-75
2023/01/16 08:38:29;;;;;;;;;;;4.50;99.90;;;;;;8406012;28;19928;-75
2023/01/16 08:51:24;;;;;;;;;;;4.50;99.90;;;;;;8405771;28;19932;-75
2023/01/16 08:55:26;;;;;;;;;;;4.50;99.90;;;;;;8406595;28;22099;-74
2023/01/16 08:59:33;;;;;;;;;;;4.60;99.90;;;;;;8408766;28;19928;-75
2023/01/16 09:03:34;;;;;;;;;;;4.60;99.90;;;;;;8393720;28;19933;-74
2023/01/16 09:07:36;;;;;;;;;;;4.60;99.90;;;;;;8382203;28;20637;-75
2023/01/16 09:16:01;;;;;;;;;;;4.70;99.90;;;;;;8391367;28;20272;-74
2023/01/16 09:20:03;;;;;;;;;;;4.80;99.90;;;;;;8404616;28;19943;-74
2023/01/16 09:24:05;;;;;;;;;;;4.70;99.90;;;;;;8395735;28;20385;-74
2023/01/16 09:28:06;;;;;;;;;;;4.80;99.90;;;;;;8398198;28;19968;-75
2023/01/16 09:32:08;;;;;;;;;;;4.80;99.90;;;;;;8410508;28;20367;-74
2023/01/16 09:36:10;;;;;;;;;;;4.80;99.90;;;;;;8403975;28;19940;-75
2023/01/16 09:40:13;;;;;;;;;;;4.80;99.90;;;;;;8405857;28;20425;-74
2023/01/16 09:44:15;;;;;;;;;;;4.90;99.90;;;;;;8395610;28;19928;-74
2023/01/16 09:48:24;;;;;;;;;;;4.90;99.90;;;;;;8403131;28;20010;-74
2023/01/16 10:01:18;;;;;;;;;;;5.00;99.90;;;;;;8397421;28;19925;-74
2023/01/16 10:05:21;;;;;;;;;;;4.90;99.90;;;;;;8373663;28;19925;-74
2023/01/16 10:09:23;;;;;;;;;;;5.00;99.90;;;;;;8401928;28;19929;-75
2023/01/16 10:13:31;;;;;;;;;;;5.00;99.90;;;;;;8401221;28;19925;-75
2023/01/16 10:17:51;;;;;;;;;;;5.00;99.90;;;;;;8374557;28;20278;-75
2023/01/16 10:22:08;;;;;;;;;;;4.90;99.90;;;;;;8380735;28;19967;-75
2023/01/16 10:26:18;;;;;;;;;;;4.90;99.90;;;;;;8395263;28;20391;-74
2023/01/16 10:30:29;;;;;;;;;;;4.90;99.90;;;;;;8400946;28;19955;-75
2023/01/16 10:34:33;;;;;;;;;;;4.80;99.90;;;;;;8397568;28;20283;-74
2023/01/16 10:38:45;;;;;;;;;;;4.90;99.90;;;;;;8373402;28;20384;-75
2023/01/16 10:51:35;;;;;;;;;;;4.80;99.90;;;;;;8400930;28;20398;-76
2023/01/16 10:55:46;;;;;;;;;;;4.80;99.90;;;;;;8402341;28;20474;-75
2023/01/16 10:59:52;;;;;;;;;;;4.80;99.90;;;;;;8398196;28;19929;-75
2023/01/16 11:03:55;;;;;;;;;;;4.80;99.90;;;;;;8380096;28;19938;-75
2023/01/16 11:08:09;;;;;;;;;;;4.90;99.90;;;;;;8375050;28;19971;-74
2023/01/16 11:20:57;;;;;;;;;;;5.00;99.90;;;;;;8402031;28;19929;-75
2023/01/16 11:25:00;;;;;;;;;;;5.00;99.90;;;;;;8398944;28;19925;-74
2023/01/16 11:29:02;;;;;;;;;;;5.10;99.90;;;;;;8375141;28;19924;-75
2023/01/16 11:33:07;;;;;;;;;;;5.30;99.90;;;;;;8395704;28;20391;-75
2023/01/16 11:37:11;;;;;;;;;;;5.50;99.90;;;;;;8401985;28;19932;-75
2023/01/16 11:41:16;;;;;;;;;;;5.70;99.90;;;;;;8387574;28;20019;-75
2023/01/16 11:49:46;;;;;;;;;;;6.00;99.90;;;;;;8391013;28;19924;-74
2023/01/16 11:53:49;;;;;;;;;;;6.00;99.90;;;;;;8398171;28;20399;-75
2023/01/16 11:58:00;;;;;;;;;;;6.00;99.90;;;;;;8376308;28;19964;-75
2023/01/16 12:02:18;;;;;;;;;;;6.00;99.90;;;;;;8403855;28;19924;-75
2023/01/16 12:06:38;;;;;;;;;;;5.90;99.90;;;;;;8399356;28;19925;-75
2023/01/16 12:10:59;;;;;;;;;;;5.90;99.90;;;;;;8387743;28;19975;-74
2023/01/16 12:15:04;;;;;;;;;;;5.80;99.90;;;;;;8418393;28;20390;-75
2023/01/16 12:19:08;;;;;;;;;;;5.80;99.90;;;;;;8407412;28;20341;-75
2023/01/16 12:23:10;;;;;;;;;;;5.80;99.90;;;;;;8397611;28;19931;-74
2023/01/16 12:27:27;;;;;;;;;;;5.70;99.90;;;;;;8393122;28;19987;-75
2023/01/16 12:31:37;;;;;;;;;;;5.70;99.90;;;;;;8405217;28;19936;-75
2023/01/16 12:35:42;;;;;;;;;;;5.80;99.90;;;;;;8406926;28;19932;-75
2023/01/16 12:39:48;;;;;;;;;;;5.80;99.90;;;;;;8393529;28;19924;-75
2023/01/16 12:43:55;;;;;;;;;;;5.80;99.90;;;;;;8393287;28;19935;-75
2023/01/16 12:48:24;;;;;;;;;;;5.90;99.90;;;;;;8362475;28;19928;-75
2023/01/16 12:52:40;;;;;;;;;;;6.00;99.90;;;;;;8378468;28;20605;-75
2023/01/16 12:57:07;;;;;;;;;;;6.00;99.90;;;;;;8398568;28;19924;-75
2023/01/16 13:01:09;;;;;;;;;;;6.10;99.90;;;;;;8384017;28;20363;-75
2023/01/16 13:05:17;;;;;;;;;;;6.10;99.90;;;;;;8401669;28;19924;-75
2023/01/16 13:09:25;;;;;;;;;;;6.10;99.90;;;;;;8399847;28;19924;-75
2023/01/16 13:13:29;;;;;;;;;;;6.20;99.90;;;;;;8410611;28;19924;-74
2023/01/16 13:17:38;;;;;;;;;;;6.20;99.90;;;;;;8403367;28;20918;-75
2023/01/16 13:22:01;;;;;;;;;;;6.20;99.90;;;;;;8402506;28;21732;-75
2023/01/16 13:26:05;;;;;;;;;;;6.20;99.90;;;;;;8415535;28;19975;-74
2023/01/16 13:30:17;;;;;;;;;;;6.20;99.90;;;;;;8379568;28;19928;-74
2023/01/16 13:34:41;;;;;;;;;;;6.20;99.90;;;;;;8406230;28;19929;-75
2023/01/16 13:38:52;;;;;;;;;;;6.20;99.90;;;;;;8381047;28;19924;-75
2023/01/16 13:45:47;;;;;;;;;;;6.30;99.90;;;;;;8405904;28;19924;-75
2023/01/16 13:47:23;;;;;;;;;;;6.20;99.90;;;;;;8405965;28;19987;-75
2023/01/16 13:51:25;;;;;;;;;;;6.20;99.90;;;;;;8400773;28;19986;-75
2023/01/16 13:55:29;;;;;;;;;;;6.20;99.90;;;;;;8384999;28;19931;-74
2023/01/16 13:59:41;;;;;;;;;;;6.20;99.90;;;;;;8404783;28;20321;-75
2023/01/16 14:04:02;;;;;;;;;;;6.20;99.90;;;;;;8395872;28;19925;-74
2023/01/16 14:12:34;;;;;;;;;;;6.20;99.90;;;;;;8408270;28;19924;-75
2023/01/16 14:16:38;;;;;;;;;;;6.10;99.90;;;;;;8383756;28;19928;-75
2023/01/16 14:20:44;;;;;;;;;;;6.10;99.90;;;;;;8379800;28;19980;-74
2023/01/16 14:24:48;;;;;;;;;;;6.10;99.90;;;;;;8388480;28;19994;-75
2023/01/16 14:28:54;;;;;;;;;;;6.10;99.90;;;;;;8390365;28;19932;-75
2023/01/16 14:32:57;;;;;;;;;;;6.10;99.90;;;;;;8363861;28;19933;-75
2023/01/16 14:37:01;;;;;;;;;;;6.10;99.90;;;;;;8367056;28;19925;-75
2023/01/16 14:58:31;;;;;;;;;;;6.00;99.90;;;;;;8365672;28;20412;-75
2023/01/16 15:02:34;;;;;;;;;;;6.00;99.90;;;;;;8364869;28;19924;-76
2023/01/16 15:06:39;;;;;;;;;;;5.90;99.90;;;;;;8360077;28;19928;-75
2023/01/16 15:10:42;;;;;;;;;;;5.90;99.90;;;;;;8364524;28;19925;-75
2023/01/16 15:14:54;;;;;;;;;;;5.80;99.90;;;;;;8348824;28;19925;-75
2023/01/16 15:23:36;;;;;;;;;;;5.80;99.90;;;;;;8349022;28;19928;-75
2023/01/16 15:27:38;;;;;;;;;;;5.80;99.90;;;;;;8350939;28;19967;-75
2023/01/16 15:31:42;;;;;;;;;;;5.70;99.90;;;;;;8350832;28;19935;-75
2023/01/16 15:35:45;;;;;;;;;;;5.70;99.90;;;;;;8365502;28;19924;-75
2023/01/16 15:39:52;;;;;;;;;;;5.70;99.90;;;;;;8378705;28;19929;-75
2023/01/16 15:48:38;;;;;;;;;;;5.70;99.90;;;;;;8367070;28;19967;-75
2023/01/16 15:52:39;;;;;;;;;;;5.70;99.90;;;;;;8367394;28;19969;-75
2023/01/16 15:56:45;;;;;;;;;;;5.70;99.90;;;;;;8361174;28;19972;-74
2023/01/16 16:01:05;;;;;;;;;;;5.70;99.90;;;;;;8359926;28;19986;-75
2023/01/16 16:05:08;;;;;;;;;;;5.70;99.90;;;;;;8365288;28;20415;-75
2023/01/16 16:09:21;;;;;;;;;;;5.70;99.90;;;;;;8379022;28;19933;-75
2023/01/16 16:13:23;;;;;;;;;;;5.70;99.90;;;;;;8355290;28;19925;-75
2023/01/16 16:26:14;;;;;;;;;;;5.70;99.90;;;;;;8364441;28;20056;-75
2023/01/16 16:30:19;;;;;;;;;;;5.60;99.90;;;;;;8361226;28;19928;-75
2023/01/16 16:34:26;;;;;;;;;;;5.60;99.90;;;;;;8363048;28;19931;-74
2023/01/16 16:38:32;;;;;;;;;;;5.60;99.90;;;;;;8356873;28;19951;-74
2023/01/16 16:42:34;;;;;;;;;;;5.50;99.90;;;;;;8353718;28;20288;-75
2023/01/16 16:46:39;;;;;;;;;;;5.50;99.90;;;;;;8350975;28;19933;-75
2023/01/16 16:50:41;;;;;;;;;;;5.50;99.90;;;;;;8354366;28;19936;-74
2023/01/16 16:54:50;;;;;;;;;;;5.50;99.90;;;;;;8354603;28;20380;-75
2023/01/16 16:58:52;;;;;;;;;;;5.50;99.90;;;;;;8350407;28;20117;-74
2023/01/16 17:03:11;;;;;;;;;;;5.50;99.90;;;;;;8338370;28;19928;-75
2023/01/16 17:07:13;;;;;;;;;;;5.50;99.90;;;;;;8356236;28;20388;-75
2023/01/16 17:11:15;;;;;;;;;;;5.50;99.90;;;;;;8350161;28;19935;-75
2023/01/16 17:15:17;;;;;;;;;;;5.30;99.90;;;;;;8364232;28;19977;-74
2023/01/16 17:19:25;;;;;;;;;;;5.10;99.90;;;;;;8382736;28;19973;-75
2023/01/16 17:23:26;;;;;;;;;;;5.00;99.90;;;;;;8383654;28;19959;-75
2023/01/16 17:27:28;;;;;;;;;;;4.80;99.90;;;;;;8368503;28;19962;-75
2023/01/16 17:31:30;;;;;;;;;;;4.80;99.90;;;;;;8366238;28;20022;-75
2023/01/16 17:35:32;;;;;;;;;;;4.70;99.90;;;;;;8366941;28;19929;-74
2023/01/16 17:39:33;;;;;;;;;;;4.60;99.90;;;;;;8365040;28;19925;-75
2023/01/16 17:47:55;;;;;;;;;;;4.50;99.90;;;;;;8361107;28;20155;-75
2023/01/16 17:51:57;;;;;;;;;;;4.40;99.90;;;;;;8375492;28;20270;-75
2023/01/16 17:56:00;;;;;;;;;;;4.40;99.90;;;;;;8367233;28;19987;-74
2023/01/16 18:00:02;;;;;;;;;;;4.40;99.90;;;;;;8373635;28;20372;-74
2023/01/16 18:04:07;;;;;;;;;;;4.40;99.90;;;;;;8371850;28;20063;-75
2023/01/16 18:08:09;;;;;;;;;;;4.40;99.90;;;;;;8359343;28;19990;-75
2023/01/16 18:21:59;;;;;;;;;;;4.30;99.90;;;;;;8366844;28;19936;-75
2023/01/16 18:25:13;;;;;;;;;;;4.30;99.90;;;;;;8364340;28;20398;-74
2023/01/16 18:29:14;;;;;;;;;;;4.40;99.90;;;;;;8363383;28;19928;-75
2023/01/16 18:33:16;;;;;;;;;;;4.40;99.90;;;;;;8360438;28;20351;-75
2023/01/16 19:04:52;;;;;;;;;;;4.20;99.90;;;;;;8396098;28;20857;-75
2023/01/16 19:08:54;;;;;;;;;;;4.20;99.90;;;;;;8385604;28;20023;-75
2023/01/16 19:13:00;;;;;;;;;;;4.30;99.90;;;;;;8378972;28;19933;-74
2023/01/16 19:17:02;;;;;;;;;;;4.20;99.90;;;;;;8395720;28;19928;-75
2023/01/16 19:21:04;;;;;;;;;;;4.30;99.90;;;;;;8395832;28;20015;-75
2023/01/16 19:25:05;;;;;;;;;;;4.30;99.90;;;;;;8399909;28;19927;-75
2023/01/16 19:29:12;;;;;;;;;;;4.30;99.90;;;;;;8396271;28;19925;-75
2023/01/16 19:33:13;;;;;;;;;;;4.30;99.90;;;;;;8399562;28;19924;-75
2023/01/16 19:37:15;;;;;;;;;;;4.30;99.90;;;;;;8391553;28;19968;-74
2023/01/16 19:49:57;;;;;;;;;;;4.30;99.90;;;;;;8399765;28;20345;-74
2023/01/16 19:53:59;;;;;;;;;;;4.30;99.90;;;;;;8388561;28;20019;-75
2023/01/16 19:58:02;;;;;;;;;;;4.30;99.90;;;;;;8377532;28;20552;-75
2023/01/16 20:02:06;;;;;;;;;;;4.30;99.90;;;;;;8400921;28;19932;-75
2023/01/16 20:06:07;;;;;;;;;;;4.30;99.90;;;;;;8397867;28;19932;-75
2023/01/16 20:10:09;;;;;;;;;;;4.30;99.90;;;;;;8395686;28;19932;-74
2023/01/16 20:14:11;;;;;;;;;;;4.40;99.90;;;;;;8405734;28;19969;-75
2023/01/16 20:18:12;;;;;;;;;;;4.40;99.90;;;;;;8388520;28;19932;-75
2023/01/16 20:22:14;;;;;;;;;;;4.40;99.90;;;;;;8377908;28;19988;-74
2023/01/16 20:26:30;;;;;;;;;;;4.40;99.90;;;;;;8391822;28;20007;-75
2023/01/16 20:30:44;;;;;;;;;;;4.40;99.90;;;;;;8384743;28;19935;-75
2023/01/16 20:34:46;;;;;;;;;;;4.40;99.90;;;;;;8392344;28;19931;-75
2023/01/16 20:38:47;;;;;;;;;;;4.40;99.90;;;;;;8394598;28;20028;-74
2023/01/16 20:47:11;;;;;;;;;;;4.40;99.90;;;;;;8404238;28;19946;-74
2023/01/16 20:51:13;;;;;;;;;;;4.40;99.90;;;;;;8396552;28;20307;-75
2023/01/16 20:55:15;;;;;;;;;;;4.40;99.90;;;;;;8394857;28;19925;-75
2023/01/16 20:59:22;;;;;;;;;;;4.40;99.90;;;;;;8419214;28;19925;-75
2023/01/16 21:03:23;;;;;;;;;;;4.50;99.90;;;;;;8404923;28;20030;-74
2023/01/16 21:07:27;;;;;;;;;;;4.40;99.90;;;;;;8403955;28;20316;-75
2023/01/16 21:21:46;;;;;;;;;;;4.30;99.90;;;;;;8399084;28;19939;-75
2023/01/16 21:24:36;;;;;;;;;;;4.20;99.90;;;;;;8408390;28;20066;-75
2023/01/16 21:28:38;;;;;;;;;;;4.30;99.90;;;;;;8406905;28;20501;-75
2023/01/16 21:32:40;;;;;;;;;;;4.20;99.90;;;;;;8400185;28;19928;-74
2023/01/16 21:36:43;;;;;;;;;;;4.20;99.90;;;;;;8405523;28;20616;-74
2023/01/16 21:40:45;;;;;;;;;;;4.20;99.90;;;;;;8390222;28;19932;-75
2023/01/16 21:49:07;;;;;;;;;;;4.10;99.90;;;;;;8397668;28;19924;-75
2023/01/16 21:53:09;;;;;;;;;;;4.10;99.90;;;;;;8406315;28;19932;-74
2023/01/16 21:57:11;;;;;;;;;;;4.10;99.90;;;;;;8398566;28;19935;-75
2023/01/16 22:01:14;;;;;;;;;;;4.00;99.90;;;;;;8399092;28;20412;-75
2023/01/16 22:05:16;;;;;;;;;;;4.00;99.90;;;;;;8423299;28;20373;-75
2023/01/16 22:09:18;;;;;;;;;;;3.90;99.90;;;;;;8429879;28;20482;-74
2023/01/16 22:17:45;;;;;;;;;;;3.90;99.90;;;;;;8419953;28;19988;-74
2023/01/16 22:21:46;;;;;;;;;;;3.90;99.90;;;;;;8416827;28;19938;-74
2023/01/16 22:25:49;;;;;;;;;;;3.90;99.90;;;;;;8412877;28;19924;-74
2023/01/16 22:29:53;;;;;;;;;;;3.90;99.90;;;;;;8420537;28;19970;-74
2023/01/16 22:33:55;;;;;;;;;;;3.90;99.90;;;;;;8418521;28;19932;-75
2023/01/16 22:37:57;;;;;;;;;;;3.80;99.90;;;;;;8416373;28;19924;-74
2023/01/16 22:41:58;;;;;;;;;;;3.80;99.90;;;;;;8417987;28;19930;-75
2023/01/16 22:50:21;;;;;;;;;;;3.80;99.90;;;;;;8422527;28;20437;-74
2023/01/16 22:54:22;;;;;;;;;;;3.80;99.90;;;;;;8411980;28;20298;-75
2023/01/16 22:58:24;;;;;;;;;;;3.90;99.90;;;;;;8409214;28;19952;-74
2023/01/16 23:02:25;;;;;;;;;;;3.90;99.90;;;;;;8423687;28;19939;-74
2023/01/16 23:06:27;;;;;;;;;;;3.90;99.90;;;;;;8412633;28;19924;-75
2023/01/16 23:10:29;;;;;;;;;;;4.00;99.90;;;;;;8420896;28;20019;-75
2023/01/16 23:14:31;;;;;;;;;;;4.00;99.90;;;;;;8418869;28;19928;-75
2023/01/16 23:18:33;;;;;;;;;;;4.10;99.90;;;;;;8416797;28;19924;-75
2023/01/16 23:22:34;;;;;;;;;;;4.10;99.90;;;;;;8418173;28;19924;-75
2023/01/16 23:26:37;;;;;;;;;;;4.00;99.90;;;;;;8404782;28;20367;-75
2023/01/16 23:30:38;;;;;;;;;;;4.10;99.90;;;;;;8409550;28;19924;-74
2023/01/16 23:34:40;;;;;;;;;;;4.00;99.90;;;;;;8417329;28;19924;-75
2023/01/16 23:38:42;;;;;;;;;;;4.10;99.90;;;;;;8421322;28;20415;-75
2023/01/16 23:47:17;;;;;;;;;;;4.10;99.90;;;;;;8410798;28;19924;-74
2023/01/16 23:51:19;;;;;;;;;;;4.00;99.90;;;;;;8427233;28;19931;-74
2023/01/16 23:55:21;;;;;;;;;;;4.00;99.90;;;;;;8416328;28;19930;-75
